Cincinnati, Ohio
Current Conditions -  °F | °C
As of 4:53 PM on Thursday 23 Oct 2014 (Local Time) from KLUK Reporting Station
Clear Clear  
Wind Chill: 60°   Ceiling: Unl
Heat Index: 60°   Visibility: 10mi
Dew Point: 42°   Wind: 0mph
Humidity: 51%   Direction: NA
Pressure: 30.15"   Gusts: NA
Location:  39.11°N, 84.5°W
Report Text: KLUK 232053Z 00000KT 10SM CLR 16/06 A3015 RMK AO2 SLP209 T01560056 56022
Loading
Personal Weather Stations






























Interactive Weather Map
Tropical Storm Tracking
New forecast layout! Learn more

10-Day Weather Forecast

Advertisements
Track Severe Weather on mobile